sensor_id;sensor_type;location;lat;lon;timestamp;temperature;humidity
33580;DHT22;19909;43.644;-79.438;2023-02-26T00:01:20;15.90;31.60
33580;DHT22;19909;43.644;-79.438;2023-02-26T00:03:51;15.90;31.60
33580;DHT22;19909;43.644;-79.438;2023-02-26T00:06:18;15.90;31.50
33580;DHT22;19909;43.644;-79.438;2023-02-26T00:08:44;15.90;31.50
33580;DHT22;19909;43.644;-79.438;2023-02-26T00:11:11;15.90;31.50
33580;DHT22;19909;43.644;-79.438;2023-02-26T00:13:39;15.90;31.50
33580;DHT22;19909;43.644;-79.438;2023-02-26T00:18:46;15.90;31.60
33580;DHT22;19909;43.644;-79.438;2023-02-26T00:21:20;15.90;31.50
33580;DHT22;19909;43.644;-79.438;2023-02-26T00:23:47;15.90;31.50
33580;DHT22;19909;43.644;-79.438;2023-02-26T00:26:13;16.00;31.40
33580;DHT22;19909;43.644;-79.438;2023-02-26T00:28:40;16.10;31.90
33580;DHT22;19909;43.644;-79.438;2023-02-26T00:31:06;16.10;32.10
33580;DHT22;19909;43.644;-79.438;2023-02-26T00:33:33;16.10;32.00
33580;DHT22;19909;43.644;-79.438;2023-02-26T00:38:52;16.10;31.90
33580;DHT22;19909;43.644;-79.438;2023-02-26T00:41:20;16.10;31.80
33580;DHT22;19909;43.644;-79.438;2023-02-26T00:43:47;16.10;31.90
33580;DHT22;19909;43.644;-79.438;2023-02-26T00:49:13;16.10;31.80
33580;DHT22;19909;43.644;-79.438;2023-02-26T00:51:51;16.10;31.90
33580;DHT22;19909;43.644;-79.438;2023-02-26T00:54:23;16.10;31.80
33580;DHT22;19909;43.644;-79.438;2023-02-26T00:56:50;16.00;31.70
33580;DHT22;19909;43.644;-79.438;2023-02-26T00:59:18;16.00;31.70
33580;DHT22;19909;43.644;-79.438;2023-02-26T01:01:45;16.00;31.70
33580;DHT22;19909;43.644;-79.438;2023-02-26T01:04:12;16.00;31.70
33580;DHT22;19909;43.644;-79.438;2023-02-26T01:06:47;15.90;31.80
33580;DHT22;19909;43.644;-79.438;2023-02-26T01:11:53;15.90;31.70
33580;DHT22;19909;43.644;-79.438;2023-02-26T01:14:20;15.90;31.80
33580;DHT22;19909;43.644;-79.438;2023-02-26T01:22:21;15.90;31.80
33580;DHT22;19909;43.644;-79.438;2023-02-26T01:24:53;16.00;31.70
33580;DHT22;19909;43.644;-79.438;2023-02-26T01:27:20;16.00;31.90
33580;DHT22;19909;43.644;-79.438;2023-02-26T01:29:47;16.10;32.10
33580;DHT22;19909;43.644;-79.438;2023-02-26T01:35:28;16.10;32.30
33580;DHT22;19909;43.644;-79.438;2023-02-26T01:38:03;16.10;32.10
33580;DHT22;19909;43.644;-79.438;2023-02-26T01:49:13;16.10;32.10
33580;DHT22;19909;43.644;-79.438;2023-02-26T01:51:47;16.00;32.00
33580;DHT22;19909;43.644;-79.438;2023-02-26T01:54:15;16.00;32.00
33580;DHT22;19909;43.644;-79.438;2023-02-26T01:56:43;16.00;31.90
33580;DHT22;19909;43.644;-79.438;2023-02-26T01:59:13;16.00;31.90
33580;DHT22;19909;43.644;-79.438;2023-02-26T02:01:40;16.00;32.00
33580;DHT22;19909;43.644;-79.438;2023-02-26T02:04:10;16.00;31.90
33580;DHT22;19909;43.644;-79.438;2023-02-26T02:06:37;16.00;31.80
33580;DHT22;19909;43.644;-79.438;2023-02-26T02:09:08;16.00;31.90
33580;DHT22;19909;43.644;-79.438;2023-02-26T02:11:36;15.90;31.90
33580;DHT22;19909;43.644;-79.438;2023-02-26T02:22:32;15.90;31.90
33580;DHT22;19909;43.644;-79.438;2023-02-26T02:25:30;15.90;32.00
33580;DHT22;19909;43.644;-79.438;2023-02-26T02:33:22;16.00;31.70
33580;DHT22;19909;43.644;-79.438;2023-02-26T02:35:56;16.00;31.60
33580;DHT22;19909;43.644;-79.438;2023-02-26T02:38:38;16.10;32.20
33580;DHT22;19909;43.644;-79.438;2023-02-26T02:41:16;16.10;32.30
33580;DHT22;19909;43.644;-79.438;2023-02-26T02:43:44;16.10;32.40
33580;DHT22;19909;43.644;-79.438;2023-02-26T02:46:17;16.10;32.50
33580;DHT22;19909;43.644;-79.438;2023-02-26T02:49:00;16.10;32.30
33580;DHT22;19909;43.644;-79.438;2023-02-26T02:51:47;16.10;32.30
33580;DHT22;19909;43.644;-79.438;2023-02-26T02:54:24;16.10;32.10
33580;DHT22;19909;43.644;-79.438;2023-02-26T02:57:14;16.10;31.80
33580;DHT22;19909;43.644;-79.438;2023-02-26T02:59:45;16.10;32.00
33580;DHT22;19909;43.644;-79.438;2023-02-26T03:02:23;16.10;32.10
33580;DHT22;19909;43.644;-79.438;2023-02-26T03:04:51;16.00;32.00
33580;DHT22;19909;43.644;-79.438;2023-02-26T03:07:17;16.00;32.40
33580;DHT22;19909;43.644;-79.438;2023-02-26T03:09:44;16.00;32.10
33580;DHT22;19909;43.644;-79.438;2023-02-26T03:12:11;16.00;32.10
33580;DHT22;19909;43.644;-79.438;2023-02-26T03:14:38;16.00;32.00
33580;DHT22;19909;43.644;-79.438;2023-02-26T03:20:06;16.00;32.00
33580;DHT22;19909;43.644;-79.438;2023-02-26T03:25:36;16.00;32.00
33580;DHT22;19909;43.644;-79.438;2023-02-26T03:28:06;15.90;31.90
33580;DHT22;19909;43.644;-79.438;2023-02-26T03:30:47;15.90;32.00
33580;DHT22;19909;43.644;-79.438;2023-02-26T03:35:55;15.90;32.00
33580;DHT22;19909;43.644;-79.438;2023-02-26T03:38:29;15.90;32.10
33580;DHT22;19909;43.644;-79.438;2023-02-26T03:41:38;15.90;31.90
33580;DHT22;19909;43.644;-79.438;2023-02-26T03:44:00;15.90;32.00
33580;DHT22;19909;43.644;-79.438;2023-02-26T03:46:44;15.90;32.00
33580;DHT22;19909;43.644;-79.438;2023-02-26T03:49:14;15.80;32.00
33580;DHT22;19909;43.644;-79.438;2023-02-26T03:51:44;15.80;32.00
33580;DHT22;19909;43.644;-79.438;2023-02-26T03:54:29;15.90;31.90
33580;DHT22;19909;43.644;-79.438;2023-02-26T03:56:56;15.90;31.90
33580;DHT22;19909;43.644;-79.438;2023-02-26T03:59:22;16.00;32.30
33580;DHT22;19909;43.644;-79.438;2023-02-26T04:02:09;16.10;32.40
33580;DHT22;19909;43.644;-79.438;2023-02-26T04:07:21;16.10;32.30
33580;DHT22;19909;43.644;-79.438;2023-02-26T04:09:49;16.10;32.10
33580;DHT22;19909;43.644;-79.438;2023-02-26T04:12:20;16.10;32.10
33580;DHT22;19909;43.644;-79.438;2023-02-26T04:14:48;16.10;32.20
33580;DHT22;19909;43.644;-79.438;2023-02-26T04:17:14;16.10;32.40
33580;DHT22;19909;43.644;-79.438;2023-02-26T04:19:40;16.00;32.40
33580;DHT22;19909;43.644;-79.438;2023-02-26T04:22:06;16.00;32.20
33580;DHT22;19909;43.644;-79.438;2023-02-26T04:24:32;16.00;32.10
33580;DHT22;19909;43.644;-79.438;2023-02-26T04:26:58;16.00;32.10
33580;DHT22;19909;43.644;-79.438;2023-02-26T04:29:25;16.00;32.10
33580;DHT22;19909;43.644;-79.438;2023-02-26T04:31:51;16.00;32.20
33580;DHT22;19909;43.644;-79.438;2023-02-26T04:34:20;16.00;32.10
33580;DHT22;19909;43.644;-79.438;2023-02-26T04:36:46;16.00;32.10
33580;DHT22;19909;43.644;-79.438;2023-02-26T04:39:12;16.00;32.10
33580;DHT22;19909;43.644;-79.438;2023-02-26T04:41:39;15.90;32.10
33580;DHT22;19909;43.644;-79.438;2023-02-26T04:44:06;15.90;32.10
33580;DHT22;19909;43.644;-79.438;2023-02-26T04:46:32;16.00;32.20
33580;DHT22;19909;43.644;-79.438;2023-02-26T04:48:58;16.00;31.90
33580;DHT22;19909;43.644;-79.438;2023-02-26T04:51:25;16.10;32.00
33580;DHT22;19909;43.644;-79.438;2023-02-26T04:53:51;16.10;32.30
33580;DHT22;19909;43.644;-79.438;2023-02-26T04:56:17;16.20;32.60
33580;DHT22;19909;43.644;-79.438;2023-02-26T04:58:43;16.20;32.60
33580;DHT22;19909;43.644;-79.438;2023-02-26T05:01:09;16.20;32.60
33580;DHT22;19909;43.644;-79.438;2023-02-26T05:03:36;16.20;32.60
33580;DHT22;19909;43.644;-79.438;2023-02-26T05:06:02;16.20;32.40
33580;DHT22;19909;43.644;-79.438;2023-02-26T05:08:28;16.20;32.30
33580;DHT22;19909;43.644;-79.438;2023-02-26T05:10:54;16.20;32.10
33580;DHT22;19909;43.644;-79.438;2023-02-26T05:13:21;16.10;32.10
33580;DHT22;19909;43.644;-79.438;2023-02-26T05:15:47;16.10;32.40
33580;DHT22;19909;43.644;-79.438;2023-02-26T05:18:13;16.10;32.40
33580;DHT22;19909;43.644;-79.438;2023-02-26T05:20:39;16.10;32.50
33580;DHT22;19909;43.644;-79.438;2023-02-26T05:23:06;16.10;32.30
33580;DHT22;19909;43.644;-79.438;2023-02-26T05:25:32;16.10;32.20
33580;DHT22;19909;43.644;-79.438;2023-02-26T05:27:58;16.10;32.20
33580;DHT22;19909;43.644;-79.438;2023-02-26T05:30:25;16.00;32.20
33580;DHT22;19909;43.644;-79.438;2023-02-26T05:32:51;16.00;32.20
33580;DHT22;19909;43.644;-79.438;2023-02-26T05:35:17;16.00;32.00
33580;DHT22;19909;43.644;-79.438;2023-02-26T05:37:43;16.00;32.30
33580;DHT22;19909;43.644;-79.438;2023-02-26T05:40:10;16.00;32.20
33580;DHT22;19909;43.644;-79.438;2023-02-26T05:42:38;16.00;32.20
33580;DHT22;19909;43.644;-79.438;2023-02-26T05:45:05;16.00;32.20
33580;DHT22;19909;43.644;-79.438;2023-02-26T05:47:32;16.00;32.20
33580;DHT22;19909;43.644;-79.438;2023-02-26T05:49:59;16.00;32.40
33580;DHT22;19909;43.644;-79.438;2023-02-26T05:52:25;16.00;32.40
33580;DHT22;19909;43.644;-79.438;2023-02-26T05:54:51;16.00;32.30
33580;DHT22;19909;43.644;-79.438;2023-02-26T05:57:17;15.90;32.20
33580;DHT22;19909;43.644;-79.438;2023-02-26T05:59:43;15.90;32.30
33580;DHT22;19909;43.644;-79.438;2023-02-26T06:02:09;15.90;32.20
33580;DHT22;19909;43.644;-79.438;2023-02-26T06:04:35;15.90;32.30
33580;DHT22;19909;43.644;-79.438;2023-02-26T06:07:02;15.90;32.40
33580;DHT22;19909;43.644;-79.438;2023-02-26T06:09:28;15.90;32.40
33580;DHT22;19909;43.644;-79.438;2023-02-26T06:11:55;15.90;32.30
33580;DHT22;19909;43.644;-79.438;2023-02-26T06:14:21;15.90;32.30
33580;DHT22;19909;43.644;-79.438;2023-02-26T06:16:47;15.90;32.30
33580;DHT22;19909;43.644;-79.438;2023-02-26T06:19:14;15.90;32.40
33580;DHT22;19909;43.644;-79.438;2023-02-26T06:21:40;15.90;32.20
33580;DHT22;19909;43.644;-79.438;2023-02-26T06:24:06;16.00;32.10
33580;DHT22;19909;43.644;-79.438;2023-02-26T06:26:32;16.00;32.60
33580;DHT22;19909;43.644;-79.438;2023-02-26T06:28:59;16.10;32.60
33580;DHT22;19909;43.644;-79.438;2023-02-26T06:31:25;16.10;32.70
33580;DHT22;19909;43.644;-79.438;2023-02-26T06:33:51;16.10;32.70
33580;DHT22;19909;43.644;-79.438;2023-02-26T06:36:17;16.10;32.70
33580;DHT22;19909;43.644;-79.438;2023-02-26T06:38:44;16.10;32.60
33580;DHT22;19909;43.644;-79.438;2023-02-26T06:41:10;16.10;32.40
33580;DHT22;19909;43.644;-79.438;2023-02-26T06:43:37;16.10;32.50
33580;DHT22;19909;43.644;-79.438;2023-02-26T06:46:03;16.10;32.60
33580;DHT22;19909;43.644;-79.438;2023-02-26T06:48:29;16.10;32.60
33580;DHT22;19909;43.644;-79.438;2023-02-26T06:50:55;16.10;32.60
33580;DHT22;19909;43.644;-79.438;2023-02-26T06:53:22;16.10;32.60
33580;DHT22;19909;43.644;-79.438;2023-02-26T06:55:50;16.00;32.60
33580;DHT22;19909;43.644;-79.438;2023-02-26T06:58:17;16.00;32.50
33580;DHT22;19909;43.644;-79.438;2023-02-26T07:00:44;16.00;32.60
33580;DHT22;19909;43.644;-79.438;2023-02-26T07:03:16;16.00;32.50
33580;DHT22;19909;43.644;-79.438;2023-02-26T07:05:43;16.00;32.60
33580;DHT22;19909;43.644;-79.438;2023-02-26T07:08:10;16.00;32.60
33580;DHT22;19909;43.644;-79.438;2023-02-26T07:10:37;16.00;32.50
33580;DHT22;19909;43.644;-79.438;2023-02-26T07:13:03;16.00;32.60
33580;DHT22;19909;43.644;-79.438;2023-02-26T07:15:30;15.90;32.50
33580;DHT22;19909;43.644;-79.438;2023-02-26T07:17:56;15.90;32.50
33580;DHT22;19909;43.644;-79.438;2023-02-26T07:20:25;15.90;32.60
33580;DHT22;19909;43.644;-79.438;2023-02-26T07:22:52;15.90;32.60
33580;DHT22;19909;43.644;-79.438;2023-02-26T07:25:18;15.90;32.50
33580;DHT22;19909;43.644;-79.438;2023-02-26T07:27:44;15.90;32.50
33580;DHT22;19909;43.644;-79.438;2023-02-26T07:30:12;15.90;32.50
33580;DHT22;19909;43.644;-79.438;2023-02-26T07:32:39;15.90;32.50
33580;DHT22;19909;43.644;-79.438;2023-02-26T07:35:05;16.00;32.40
33580;DHT22;19909;43.644;-79.438;2023-02-26T07:37:31;16.00;32.60
33580;DHT22;19909;43.644;-79.438;2023-02-26T07:39:58;16.10;32.90
33580;DHT22;19909;43.644;-79.438;2023-02-26T07:42:24;16.20;33.00
33580;DHT22;19909;43.644;-79.438;2023-02-26T07:44:50;16.10;33.00
33580;DHT22;19909;43.644;-79.438;2023-02-26T07:47:16;16.20;33.10
33580;DHT22;19909;43.644;-79.438;2023-02-26T07:49:43;16.10;33.00
33580;DHT22;19909;43.644;-79.438;2023-02-26T07:52:09;16.10;32.90
33580;DHT22;19909;43.644;-79.438;2023-02-26T07:54:36;16.10;32.70
33580;DHT22;19909;43.644;-79.438;2023-02-26T07:57:03;16.10;32.60
33580;DHT22;19909;43.644;-79.438;2023-02-26T07:59:29;16.10;32.70
33580;DHT22;19909;43.644;-79.438;2023-02-26T08:01:55;16.10;32.70
33580;DHT22;19909;43.644;-79.438;2023-02-26T08:04:22;16.10;32.80
33580;DHT22;19909;43.644;-79.438;2023-02-26T08:06:48;16.10;32.70
33580;DHT22;19909;43.644;-79.438;2023-02-26T08:09:14;16.10;32.80
33580;DHT22;19909;43.644;-79.438;2023-02-26T08:11:40;16.10;32.80
33580;DHT22;19909;43.644;-79.438;2023-02-26T08:14:08;16.10;32.70
33580;DHT22;19909;43.644;-79.438;2023-02-26T08:16:34;16.00;32.60
33580;DHT22;19909;43.644;-79.438;2023-02-26T08:19:00;16.00;32.70
33580;DHT22;19909;43.644;-79.438;2023-02-26T08:21:27;16.00;32.60
33580;DHT22;19909;43.644;-79.438;2023-02-26T08:23:53;16.00;32.70
33580;DHT22;19909;43.644;-79.438;2023-02-26T08:26:19;16.00;32.70
33580;DHT22;19909;43.644;-79.438;2023-02-26T08:28:46;16.00;32.60
33580;DHT22;19909;43.644;-79.438;2023-02-26T08:31:13;16.00;32.70
33580;DHT22;19909;43.644;-79.438;2023-02-26T08:33:40;16.00;32.60
33580;DHT22;19909;43.644;-79.438;2023-02-26T08:36:06;16.10;32.60
33580;DHT22;19909;43.644;-79.438;2023-02-26T08:38:33;16.20;32.90
33580;DHT22;19909;43.644;-79.438;2023-02-26T08:40:59;16.20;33.10
33580;DHT22;19909;43.644;-79.438;2023-02-26T08:43:25;16.20;33.20
33580;DHT22;19909;43.644;-79.438;2023-02-26T08:45:53;16.20;33.10
33580;DHT22;19909;43.644;-79.438;2023-02-26T08:48:20;16.20;33.10
33580;DHT22;19909;43.644;-79.438;2023-02-26T08:50:46;16.20;33.10
33580;DHT22;19909;43.644;-79.438;2023-02-26T08:53:12;16.20;33.10
33580;DHT22;19909;43.644;-79.438;2023-02-26T08:55:39;16.20;33.00
33580;DHT22;19909;43.644;-79.438;2023-02-26T08:58:05;16.20;32.80
33580;DHT22;19909;43.644;-79.438;2023-02-26T09:00:33;16.20;32.90
33580;DHT22;19909;43.644;-79.438;2023-02-26T09:02:59;16.20;32.90
33580;DHT22;19909;43.644;-79.438;2023-02-26T09:05:25;16.20;33.00
33580;DHT22;19909;43.644;-79.438;2023-02-26T09:07:52;16.10;32.80
33580;DHT22;19909;43.644;-79.438;2023-02-26T09:10:18;16.10;32.80
33580;DHT22;19909;43.644;-79.438;2023-02-26T09:12:44;16.10;32.90
33580;DHT22;19909;43.644;-79.438;2023-02-26T09:15:12;16.10;32.90
33580;DHT22;19909;43.644;-79.438;2023-02-26T09:17:40;16.10;33.50
33580;DHT22;19909;43.644;-79.438;2023-02-26T09:20:07;16.10;32.90
33580;DHT22;19909;43.644;-79.438;2023-02-26T09:22:34;16.10;33.00
33580;DHT22;19909;43.644;-79.438;2023-02-26T09:25:02;16.10;32.90
33580;DHT22;19909;43.644;-79.438;2023-02-26T09:27:28;16.00;32.80
33580;DHT22;19909;43.644;-79.438;2023-02-26T09:29:54;16.00;32.90
33580;DHT22;19909;43.644;-79.438;2023-02-26T09:32:20;16.00;32.90
33580;DHT22;19909;43.644;-79.438;2023-02-26T09:34:47;16.00;33.00
33580;DHT22;19909;43.644;-79.438;2023-02-26T09:37:13;16.00;33.00
33580;DHT22;19909;43.644;-79.438;2023-02-26T09:39:39;16.00;33.00
33580;DHT22;19909;43.644;-79.438;2023-02-26T09:44:35;16.00;33.00
33580;DHT22;19909;43.644;-79.438;2023-02-26T09:52:49;16.00;33.00
33580;DHT22;19909;43.644;-79.438;2023-02-26T09:55:13;15.90;33.00
33580;DHT22;19909;43.644;-79.438;2023-02-26T09:57:43;15.90;33.00
33580;DHT22;19909;43.644;-79.438;2023-02-26T10:05:50;15.90;33.10
33580;DHT22;19909;43.644;-79.438;2023-02-26T10:08:22;15.90;33.10
33580;DHT22;19909;43.644;-79.438;2023-02-26T10:11:13;15.90;33.10
33580;DHT22;19909;43.644;-79.438;2023-02-26T10:13:50;15.80;33.00
33580;DHT22;19909;43.644;-79.438;2023-02-26T10:16:21;15.90;33.20
33580;DHT22;19909;43.644;-79.438;2023-02-26T10:19:02;15.80;33.10
33580;DHT22;19909;43.644;-79.438;2023-02-26T10:24:07;15.90;33.10
33580;DHT22;19909;43.644;-79.438;2023-02-26T10:26:55;15.80;33.10
33580;DHT22;19909;43.644;-79.438;2023-02-26T10:32:05;15.80;33.20
33580;DHT22;19909;43.644;-79.438;2023-02-26T10:34:37;15.80;33.30
33580;DHT22;19909;43.644;-79.438;2023-02-26T10:40:02;15.80;33.20
33580;DHT22;19909;43.644;-79.438;2023-02-26T10:51:28;15.80;33.30
33580;DHT22;19909;43.644;-79.438;2023-02-26T10:56:46;15.80;33.30
33580;DHT22;19909;43.644;-79.438;2023-02-26T10:59:13;15.80;33.30
33580;DHT22;19909;43.644;-79.438;2023-02-26T11:01:39;15.70;33.30
33580;DHT22;19909;43.644;-79.438;2023-02-26T11:04:14;15.70;33.20
33580;DHT22;19909;43.644;-79.438;2023-02-26T11:06:59;15.80;33.20
33580;DHT22;19909;43.644;-79.438;2023-02-26T11:09:38;15.70;33.20
33580;DHT22;19909;43.644;-79.438;2023-02-26T11:12:13;15.70;33.10
33580;DHT22;19909;43.644;-79.438;2023-02-26T11:14:46;15.80;33.20
33580;DHT22;19909;43.644;-79.438;2023-02-26T11:17:27;15.70;33.20
33580;DHT22;19909;43.644;-79.438;2023-02-26T11:20:12;15.70;33.20
33580;DHT22;19909;43.644;-79.438;2023-02-26T11:22:39;15.80;33.40
33580;DHT22;19909;43.644;-79.438;2023-02-26T11:25:13;15.80;33.30
33580;DHT22;19909;43.644;-79.438;2023-02-26T11:27:39;15.80;33.20
33580;DHT22;19909;43.644;-79.438;2023-02-26T11:30:30;15.90;33.50
33580;DHT22;19909;43.644;-79.438;2023-02-26T11:32:58;15.90;33.60
33580;DHT22;19909;43.644;-79.438;2023-02-26T11:35:28;15.90;33.80
33580;DHT22;19909;43.644;-79.438;2023-02-26T11:37:59;15.90;33.70
33580;DHT22;19909;43.644;-79.438;2023-02-26T11:40:38;16.00;33.50
33580;DHT22;19909;43.644;-79.438;2023-02-26T11:43:07;16.00;33.50
33580;DHT22;19909;43.644;-79.438;2023-02-26T11:45:39;16.00;33.50
33580;DHT22;19909;43.644;-79.438;2023-02-26T11:48:45;16.00;33.50
33580;DHT22;19909;43.644;-79.438;2023-02-26T11:51:04;16.00;33.60
33580;DHT22;19909;43.644;-79.438;2023-02-26T11:53:34;15.90;33.40
33580;DHT22;19909;43.644;-79.438;2023-02-26T11:56:07;15.90;33.40
33580;DHT22;19909;43.644;-79.438;2023-02-26T11:58:36;15.90;33.40
33580;DHT22;19909;43.644;-79.438;2023-02-26T12:01:05;15.90;33.40
33580;DHT22;19909;43.644;-79.438;2023-02-26T12:03:35;15.90;33.30
33580;DHT22;19909;43.644;-79.438;2023-02-26T12:06:05;15.90;33.40
33580;DHT22;19909;43.644;-79.438;2023-02-26T12:08:36;15.90;33.40
33580;DHT22;19909;43.644;-79.438;2023-02-26T12:14:15;15.90;33.40
33580;DHT22;19909;43.644;-79.438;2023-02-26T12:19:45;16.00;33.10
33580;DHT22;19909;43.644;-79.438;2023-02-26T12:27:47;16.10;33.60
33580;DHT22;19909;43.644;-79.438;2023-02-26T12:30:24;16.10;33.70
33580;DHT22;19909;43.644;-79.438;2023-02-26T12:33:18;16.10;33.80
33580;DHT22;19909;43.644;-79.438;2023-02-26T12:38:29;16.10;33.50
33580;DHT22;19909;43.644;-79.438;2023-02-26T12:43:51;16.10;33.60
33580;DHT22;19909;43.644;-79.438;2023-02-26T13:00:45;16.00;33.50
33580;DHT22;19909;43.644;-79.438;2023-02-26T13:03:43;16.00;33.50
33580;DHT22;19909;43.644;-79.438;2023-02-26T13:09:35;16.00;33.60
33580;DHT22;19909;43.644;-79.438;2023-02-26T13:19:55;15.90;33.80
33580;DHT22;19909;43.644;-79.438;2023-02-26T13:22:31;15.90;33.60
33580;DHT22;19909;43.644;-79.438;2023-02-26T13:25:03;16.00;33.50
33580;DHT22;19909;43.644;-79.438;2023-02-26T13:27:37;15.90;33.50
33580;DHT22;19909;43.644;-79.438;2023-02-26T13:32:41;15.90;33.40
33580;DHT22;19909;43.644;-79.438;2023-02-26T13:35:18;15.90;33.50
33580;DHT22;19909;43.644;-79.438;2023-02-26T13:44:04;15.90;33.50
33580;DHT22;19909;43.644;-79.438;2023-02-26T13:51:53;15.90;33.50
33580;DHT22;19909;43.644;-79.438;2023-02-26T13:56:46;15.90;33.30
33580;DHT22;19909;43.644;-79.438;2023-02-26T14:01:49;15.90;33.50
33580;DHT22;19909;43.644;-79.438;2023-02-26T14:07:26;15.90;33.50
33580;DHT22;19909;43.644;-79.438;2023-02-26T14:10:01;15.90;33.50
33580;DHT22;19909;43.644;-79.438;2023-02-26T14:12:35;15.90;33.40
33580;DHT22;19909;43.644;-79.438;2023-02-26T14:17:39;15.90;33.60
33580;DHT22;19909;43.644;-79.438;2023-02-26T14:20:27;15.80;33.60
33580;DHT22;19909;43.644;-79.438;2023-02-26T14:25:41;15.80;33.50
33580;DHT22;19909;43.644;-79.438;2023-02-26T14:34:25;15.80;33.50
33580;DHT22;19909;43.644;-79.438;2023-02-26T14:36:47;15.80;33.60
33580;DHT22;19909;43.644;-79.438;2023-02-26T14:39:42;15.80;33.60
33580;DHT22;19909;43.644;-79.438;2023-02-26T14:45:02;15.80;33.70
33580;DHT22;19909;43.644;-79.438;2023-02-26T14:47:31;15.80;33.30
33580;DHT22;19909;43.644;-79.438;2023-02-26T14:49:57;15.80;33.30
33580;DHT22;19909;43.644;-79.438;2023-02-26T14:52:42;15.80;33.30
33580;DHT22;19909;43.644;-79.438;2023-02-26T14:58:05;15.80;33.30
33580;DHT22;19909;43.644;-79.438;2023-02-26T15:11:55;15.80;33.10
33580;DHT22;19909;43.644;-79.438;2023-02-26T15:25:42;15.70;33.20
33580;DHT22;19909;43.644;-79.438;2023-02-26T15:28:28;15.70;33.40
33580;DHT22;19909;43.644;-79.438;2023-02-26T15:30:55;15.70;33.40
33580;DHT22;19909;43.644;-79.438;2023-02-26T15:33:24;15.70;33.60
33580;DHT22;19909;43.644;-79.438;2023-02-26T15:35:51;15.70;33.50
33580;DHT22;19909;43.644;-79.438;2023-02-26T15:38:18;15.70;33.20
33580;DHT22;19909;43.644;-79.438;2023-02-26T15:40:45;15.70;33.00
33580;DHT22;19909;43.644;-79.438;2023-02-26T15:43:20;15.70;33.30
33580;DHT22;19909;43.644;-79.438;2023-02-26T15:45:50;15.70;33.30
33580;DHT22;19909;43.644;-79.438;2023-02-26T15:48:33;15.70;33.30
33580;DHT22;19909;43.644;-79.438;2023-02-26T15:51:05;15.70;33.40
33580;DHT22;19909;43.644;-79.438;2023-02-26T15:53:37;15.70;33.20
33580;DHT22;19909;43.644;-79.438;2023-02-26T15:56:24;15.70;33.00
33580;DHT22;19909;43.644;-79.438;2023-02-26T15:58:55;15.60;32.80
33580;DHT22;19909;43.644;-79.438;2023-02-26T16:01:24;15.70;33.00
33580;DHT22;19909;43.644;-79.438;2023-02-26T16:03:54;15.60;32.90
33580;DHT22;19909;43.644;-79.438;2023-02-26T16:06:37;15.70;32.90
33580;DHT22;19909;43.644;-79.438;2023-02-26T16:09:16;15.60;32.50
33580;DHT22;19909;43.644;-79.438;2023-02-26T16:11:43;15.60;32.40
33580;DHT22;19909;43.644;-79.438;2023-02-26T16:14:16;15.60;33.00
33580;DHT22;19909;43.644;-79.438;2023-02-26T16:16:46;15.60;33.30
33580;DHT22;19909;43.644;-79.438;2023-02-26T16:19:18;15.70;33.20
33580;DHT22;19909;43.644;-79.438;2023-02-26T16:21:47;15.60;32.70
33580;DHT22;19909;43.644;-79.438;2023-02-26T16:24:18;15.70;32.50
33580;DHT22;19909;43.644;-79.438;2023-02-26T16:27:10;15.60;32.40
33580;DHT22;19909;43.644;-79.438;2023-02-26T16:29:49;15.70;33.50
33580;DHT22;19909;43.644;-79.438;2023-02-26T16:32:16;15.60;33.20
33580;DHT22;19909;43.644;-79.438;2023-02-26T16:34:50;15.70;33.40
33580;DHT22;19909;43.644;-79.438;2023-02-26T16:48:00;15.60;33.20
33580;DHT22;19909;43.644;-79.438;2023-02-26T16:50:30;15.60;32.80
33580;DHT22;19909;43.644;-79.438;2023-02-26T16:53:07;15.60;32.40
33580;DHT22;19909;43.644;-79.438;2023-02-26T16:55:36;15.60;32.30
33580;DHT22;19909;43.644;-79.438;2023-02-26T16:58:07;15.60;32.60
33580;DHT22;19909;43.644;-79.438;2023-02-26T17:00:37;15.60;32.90
33580;DHT22;19909;43.644;-79.438;2023-02-26T17:03:24;15.60;32.70
33580;DHT22;19909;43.644;-79.438;2023-02-26T17:06:03;15.60;32.20
33580;DHT22;19909;43.644;-79.438;2023-02-26T17:08:40;15.60;32.20
33580;DHT22;19909;43.644;-79.438;2023-02-26T17:11:14;15.70;32.60
33580;DHT22;19909;43.644;-79.438;2023-02-26T17:13:42;15.80;32.90
33580;DHT22;19909;43.644;-79.438;2023-02-26T17:16:11;15.80;32.50
33580;DHT22;19909;43.644;-79.438;2023-02-26T17:18:38;15.80;32.40
33580;DHT22;19909;43.644;-79.438;2023-02-26T17:21:05;15.80;32.00
33580;DHT22;19909;43.644;-79.438;2023-02-26T17:23:34;15.80;32.00
33580;DHT22;19909;43.644;-79.438;2023-02-26T17:26:02;15.80;31.90
33580;DHT22;19909;43.644;-79.438;2023-02-26T17:28:40;15.80;31.90
33580;DHT22;19909;43.644;-79.438;2023-02-26T17:31:07;15.80;32.00
33580;DHT22;19909;43.644;-79.438;2023-02-26T17:33:34;15.80;32.20
33580;DHT22;19909;43.644;-79.438;2023-02-26T17:36:02;15.80;32.30
33580;DHT22;19909;43.644;-79.438;2023-02-26T17:38:29;15.80;31.90
33580;DHT22;19909;43.644;-79.438;2023-02-26T17:40:57;15.80;31.80
33580;DHT22;19909;43.644;-79.438;2023-02-26T17:43:24;15.80;32.00
33580;DHT22;19909;43.644;-79.438;2023-02-26T17:45:51;15.80;32.10
33580;DHT22;19909;43.644;-79.438;2023-02-26T17:48:18;15.80;32.20
33580;DHT22;19909;43.644;-79.438;2023-02-26T17:50:51;15.80;32.10
33580;DHT22;19909;43.644;-79.438;2023-02-26T17:53:20;15.80;31.80
33580;DHT22;19909;43.644;-79.438;2023-02-26T17:55:49;15.80;32.00
33580;DHT22;19909;43.644;-79.438;2023-02-26T17:58:18;15.80;32.00
33580;DHT22;19909;43.644;-79.438;2023-02-26T18:00:47;15.80;32.60
33580;DHT22;19909;43.644;-79.438;2023-02-26T18:03:18;15.80;33.40
33580;DHT22;19909;43.644;-79.438;2023-02-26T18:05:46;15.80;32.50
33580;DHT22;19909;43.644;-79.438;2023-02-26T18:08:33;15.80;32.30
33580;DHT22;19909;43.644;-79.438;2023-02-26T18:11:01;15.80;32.00
33580;DHT22;19909;43.644;-79.438;2023-02-26T18:13:28;15.80;32.10
33580;DHT22;19909;43.644;-79.438;2023-02-26T18:15:55;15.80;32.50
33580;DHT22;19909;43.644;-79.438;2023-02-26T18:18:23;15.70;32.60
33580;DHT22;19909;43.644;-79.438;2023-02-26T18:20:50;15.70;32.40
33580;DHT22;19909;43.644;-79.438;2023-02-26T18:23:17;15.70;32.00
33580;DHT22;19909;43.644;-79.438;2023-02-26T18:25:45;15.80;31.90
33580;DHT22;19909;43.644;-79.438;2023-02-26T18:28:15;15.80;32.40
33580;DHT22;19909;43.644;-79.438;2023-02-26T18:30:42;15.80;32.80
33580;DHT22;19909;43.644;-79.438;2023-02-26T18:33:12;15.70;33.20
33580;DHT22;19909;43.644;-79.438;2023-02-26T18:35:43;15.80;32.90
33580;DHT22;19909;43.644;-79.438;2023-02-26T18:38:18;15.70;32.70
33580;DHT22;19909;43.644;-79.438;2023-02-26T18:40:45;15.70;32.70
33580;DHT22;19909;43.644;-79.438;2023-02-26T18:43:12;15.70;32.50